createdAt,value
2023-02-05T00:00:08.622Z,78.79
2023-02-05T00:02:11.885Z,79.94
2023-02-05T00:04:13.951Z,79.38
2023-02-05T00:06:16.910Z,79.69
2023-02-05T00:08:18.908Z,79.19
2023-02-05T00:10:20.744Z,79.56
2023-02-05T00:12:22.683Z,79.42
2023-02-05T00:14:25.293Z,79.43
2023-02-05T00:16:27.298Z,79.73
2023-02-05T00:18:29.389Z,79.24
2023-02-05T00:20:31.438Z,79.81
2023-02-05T00:22:35.048Z,79.97
2023-02-05T00:24:37.047Z,79.72
2023-02-05T00:26:39.101Z,79.99
2023-02-05T00:28:44.631Z,79.90
2023-02-05T00:30:49.654Z,80.02
2023-02-05T00:32:51.680Z,79.94
2023-02-05T00:34:54.576Z,80.26
2023-02-05T00:36:56.427Z,79.28
2023-02-05T00:38:58.398Z,80.13
2023-02-05T00:41:00.783Z,79.64
2023-02-05T00:43:04.754Z,79.86
2023-02-05T00:45:07.208Z,79.05
2023-02-05T00:47:10.175Z,79.48
2023-02-05T00:49:12.118Z,78.62
2023-02-05T00:51:15.096Z,79.25
2023-02-05T00:53:19.318Z,79.31
2023-02-05T00:55:21.693Z,78.45
2023-02-05T00:57:24.921Z,78.49
2023-02-05T00:59:26.840Z,78.13
2023-02-05T01:01:32.739Z,78.25
2023-02-05T01:03:34.813Z,79.05
2023-02-05T01:05:38.067Z,78.02
2023-02-05T01:07:40.149Z,78.26
2023-02-05T01:09:43.118Z,78.05
2023-02-05T01:11:45.025Z,78.55
2023-02-05T01:13:48.968Z,78.96
2023-02-05T01:15:50.982Z,78.69
2023-02-05T01:17:53.191Z,78.42
2023-02-05T01:19:55.147Z,78.23
2023-02-05T01:21:57.988Z,78.36
2023-02-05T01:24:01.766Z,77.98
2023-02-05T01:26:03.648Z,77.15
2023-02-05T01:28:07.180Z,77.78
2023-02-05T01:30:12.027Z,77.19
2023-02-05T01:32:15.273Z,77.55
2023-02-05T01:34:18.252Z,78.19
2023-02-05T01:36:20.152Z,78.11
2023-02-05T01:38:24.160Z,77.06
2023-02-05T01:40:26.140Z,77.24
2023-02-05T01:42:31.954Z,77.17
2023-02-05T01:44:33.781Z,76.51
2023-02-05T01:46:38.636Z,76.83
2023-02-05T01:48:44.401Z,77.70
2023-02-05T01:50:51.509Z,77.35
2023-02-05T01:52:54.976Z,77.04
2023-02-05T01:54:58.892Z,76.70
2023-02-05T01:57:06.614Z,77.02
2023-02-05T01:59:24.657Z,77.17
2023-02-05T02:01:27.950Z,76.87
2023-02-05T02:03:31.859Z,76.04
2023-02-05T02:05:34.205Z,76.63
2023-02-05T02:07:38.342Z,76.13
2023-02-05T02:09:42.336Z,75.60
2023-02-05T02:11:45.100Z,75.54
2023-02-05T02:13:49.111Z,75.28
2023-02-05T02:15:52.386Z,75.72
2023-02-05T02:18:19.824Z,75.36
2023-02-05T02:20:26.349Z,75.46
2023-02-05T02:22:55.203Z,75.24
2023-02-05T02:25:02.675Z,75.03
2023-02-05T02:27:40.024Z,74.88
2023-02-05T02:29:57.489Z,75.31
2023-02-05T02:32:13.289Z,74.94
2023-02-05T02:34:25.232Z,75.12
2023-02-05T02:36:49.778Z,75.17
2023-02-05T02:39:03.266Z,74.20
2023-02-05T02:41:13.421Z,74.71
2023-02-05T02:43:58.705Z,74.91
2023-02-05T02:46:05.765Z,73.43
2023-02-05T02:48:08.834Z,73.31
2023-02-05T02:50:17.581Z,72.91
2023-02-05T02:52:22.645Z,73.36
2023-02-05T02:54:27.146Z,72.76
2023-02-05T02:56:32.728Z,73.21
2023-02-05T02:58:48.916Z,72.41
2023-02-05T03:00:53.820Z,72.28
2023-02-05T03:03:03.474Z,72.48
2023-02-05T03:05:13.077Z,72.58
2023-02-05T03:07:31.754Z,73.03
2023-02-05T03:09:52.990Z,72.80
2023-02-05T03:11:55.056Z,72.61
2023-02-05T03:13:57.654Z,72.23
2023-02-05T03:16:00.727Z,71.94
2023-02-05T03:18:02.738Z,72.01
2023-02-05T03:20:07.510Z,72.72
2023-02-05T03:22:09.436Z,73.12
2023-02-05T03:24:13.307Z,72.41
2023-02-05T03:26:31.164Z,72.18
2023-02-05T03:28:38.962Z,72.48
2023-02-05T03:31:09.818Z,72.71
2023-02-05T03:33:21.572Z,72.99
2023-02-05T03:35:39.826Z,73.44
2023-02-05T03:38:20.550Z,72.97
2023-02-05T03:40:30.706Z,74.16
2023-02-05T03:42:57.776Z,73.02
2023-02-05T03:45:08.681Z,73.21
2023-02-05T03:47:32.489Z,74.33
2023-02-05T03:49:46.337Z,73.78
2023-02-05T03:52:07.406Z,74.20
2023-02-05T03:54:28.786Z,73.75
2023-02-05T03:56:43.738Z,73.05
2023-02-05T03:58:56.155Z,73.92
2023-02-05T04:00:58.823Z,73.43
2023-02-05T04:03:00.827Z,73.39
2023-02-05T04:05:03.042Z,74.25
2023-02-05T04:07:04.960Z,74.01
2023-02-05T04:09:07.307Z,74.08
2023-02-05T04:11:10.072Z,73.99
2023-02-05T04:13:13.821Z,73.25
2023-02-05T04:15:15.865Z,73.45
2023-02-05T04:17:17.715Z,73.66
2023-02-05T04:19:19.718Z,74.02
2023-02-05T04:21:21.915Z,74.63
2023-02-05T04:23:23.873Z,73.41
2023-02-05T04:25:26.883Z,74.07
2023-02-05T04:27:28.848Z,74.26
2023-02-05T04:29:30.862Z,73.71
2023-02-05T04:31:32.759Z,74.49
2023-02-05T04:33:34.803Z,73.69
2023-02-05T04:35:38.703Z,74.20
2023-02-05T04:37:40.669Z,74.10
2023-02-05T04:39:43.569Z,73.52
2023-02-05T04:41:45.438Z,73.14
2023-02-05T04:43:48.379Z,73.75
2023-02-05T04:45:50.352Z,73.84
2023-02-05T04:47:52.333Z,73.33
2023-02-05T04:49:54.197Z,73.42
2023-02-05T04:51:56.058Z,73.57
2023-02-05T04:53:57.942Z,72.47
2023-02-05T04:56:09.866Z,73.21
2023-02-05T04:58:11.798Z,73.69
2023-02-05T05:00:14.395Z,73.57
2023-02-05T05:02:17.063Z,73.26
2023-02-05T05:04:19.059Z,72.41
2023-02-05T05:06:21.431Z,73.76
2023-02-05T05:08:23.341Z,73.33
2023-02-05T05:10:25.440Z,73.17
2023-02-05T05:12:27.272Z,73.64
2023-02-05T05:14:35.073Z,73.78
2023-02-05T05:16:36.952Z,73.86
2023-02-05T05:18:40.106Z,73.94
2023-02-05T05:20:42.747Z,73.12
2023-02-05T05:22:44.680Z,72.81
2023-02-05T05:24:46.708Z,72.61
2023-02-05T05:26:48.662Z,73.66
2023-02-05T05:28:55.775Z,73.41
2023-02-05T05:30:57.744Z,72.95
2023-02-05T05:33:10.862Z,72.63
2023-02-05T05:35:12.674Z,73.32
2023-02-05T05:37:14.656Z,72.51
2023-02-05T05:39:37.243Z,72.61
2023-02-05T05:41:57.479Z,73.84
2023-02-05T05:43:59.277Z,72.96
2023-02-05T05:46:01.873Z,73.37
2023-02-05T05:48:04.666Z,72.92
2023-02-05T05:50:07.095Z,72.58
2023-02-05T05:52:08.968Z,73.43
2023-02-05T05:54:11.887Z,72.72
2023-02-05T05:56:15.614Z,72.59
2023-02-05T05:58:17.652Z,73.38
2023-02-05T06:00:20.800Z,73.63
2023-02-05T06:02:22.711Z,73.47
2023-02-05T06:04:24.704Z,72.98
2023-02-05T06:06:26.605Z,72.76
2023-02-05T06:08:28.720Z,73.06
2023-02-05T06:10:30.875Z,72.74
2023-02-05T06:12:32.805Z,72.76
2023-02-05T06:14:34.857Z,72.87
2023-02-05T06:16:37.774Z,73.00
2023-02-05T06:18:40.605Z,72.29
2023-02-05T06:20:42.494Z,72.11
2023-02-05T06:22:44.719Z,72.96
2023-02-05T06:24:46.593Z,73.09
2023-02-05T06:26:48.456Z,73.03
2023-02-05T06:28:50.365Z,73.16
2023-02-05T06:30:53.381Z,72.62
2023-02-05T06:32:55.425Z,72.03
2023-02-05T06:34:57.301Z,72.67
2023-02-05T06:36:59.198Z,72.33
2023-02-05T06:39:01.023Z,71.82
2023-02-05T06:41:03.000Z,71.98
2023-02-05T06:43:04.989Z,72.15
2023-02-05T06:45:07.519Z,71.84
2023-02-05T06:47:10.413Z,72.66
2023-02-05T06:49:14.330Z,72.36
2023-02-05T06:51:18.264Z,72.21
2023-02-05T06:53:20.274Z,72.13
2023-02-05T06:55:22.234Z,71.96
2023-02-05T06:57:24.106Z,71.87
2023-02-05T06:59:26.172Z,71.57
2023-02-05T07:01:28.177Z,72.39
2023-02-05T07:03:30.290Z,71.60
2023-02-05T07:05:34.989Z,71.79
2023-02-05T07:07:38.139Z,72.34
2023-02-05T07:09:40.018Z,71.79
2023-02-05T07:11:41.984Z,71.98
2023-02-05T07:13:44.878Z,72.02
2023-02-05T07:15:47.652Z,71.61
2023-02-05T07:17:50.444Z,71.17
2023-02-05T07:19:52.470Z,71.91
2023-02-05T07:21:55.285Z,71.48
2023-02-05T07:23:57.146Z,71.16
2023-02-05T07:25:59.339Z,71.29
2023-02-05T07:28:01.278Z,71.30
2023-02-05T07:30:03.334Z,70.45
2023-02-05T07:32:05.486Z,70.19
2023-02-05T07:34:07.413Z,70.99
2023-02-05T07:36:12.003Z,69.69
2023-02-05T07:38:14.376Z,70.26
2023-02-05T07:40:17.497Z,70.24
2023-02-05T07:42:22.709Z,70.26
2023-02-05T07:44:27.018Z,70.39
2023-02-05T07:46:29.178Z,69.53
2023-02-05T07:48:31.852Z,70.30
2023-02-05T07:50:34.080Z,69.68
2023-02-05T07:52:35.962Z,69.53
2023-02-05T07:54:38.841Z,68.68
2023-02-05T07:56:40.870Z,68.39
2023-02-05T07:58:43.619Z,68.90
2023-02-05T08:00:45.880Z,68.57
2023-02-05T08:02:54.877Z,68.62
2023-02-05T08:04:58.862Z,67.67
2023-02-05T08:07:00.904Z,68.08
2023-02-05T08:09:02.833Z,67.96
2023-02-05T08:11:06.792Z,67.03
2023-02-05T08:13:08.688Z,67.09
2023-02-05T08:15:11.228Z,66.69
2023-02-05T08:17:14.198Z,66.60
2023-02-05T08:19:18.053Z,66.44
2023-02-05T08:21:22.056Z,66.92
2023-02-05T08:23:24.217Z,67.81
2023-02-05T08:25:26.196Z,66.86
2023-02-05T08:27:30.139Z,67.08
2023-02-05T08:29:32.338Z,66.19
2023-02-05T08:31:35.704Z,67.18
2023-02-05T08:33:40.095Z,66.56
2023-02-05T08:35:42.076Z,66.64
2023-02-05T08:37:45.116Z,66.63
2023-02-05T08:39:47.038Z,66.88
2023-02-05T08:41:49.983Z,66.89
2023-02-05T08:43:51.968Z,66.28
2023-02-05T08:45:53.899Z,66.49
2023-02-05T08:47:57.463Z,66.58
2023-02-05T08:50:00.286Z,66.47
2023-02-05T08:52:02.994Z,66.15
2023-02-05T08:54:09.424Z,66.81
2023-02-05T08:56:14.211Z,65.98
2023-02-05T08:58:16.131Z,66.78
2023-02-05T09:00:18.438Z,66.38
2023-02-05T09:02:20.339Z,66.29
2023-02-05T09:04:23.706Z,66.53
2023-02-05T09:06:25.836Z,65.80
2023-02-05T09:08:31.112Z,65.30
2023-02-05T09:10:33.214Z,64.82
2023-02-05T09:12:36.229Z,65.19
2023-02-05T09:14:39.548Z,65.58
2023-02-05T09:16:44.523Z,65.19
2023-02-05T09:18:47.423Z,65.91
2023-02-05T09:20:50.683Z,65.72
2023-02-05T09:22:54.285Z,65.38
2023-02-05T09:24:57.189Z,64.20
2023-02-05T09:26:59.482Z,63.71
2023-02-05T09:29:02.487Z,63.06
2023-02-05T09:31:15.611Z,64.01
2023-02-05T09:33:18.314Z,63.93
2023-02-05T09:35:21.419Z,62.69
2023-02-05T09:37:23.341Z,61.28
2023-02-05T09:39:56.072Z,61.22
2023-02-05T09:42:05.998Z,61.56
2023-02-05T09:44:41.038Z,61.58
2023-02-05T09:47:01.388Z,59.49
2023-02-05T09:49:19.041Z,60.32
2023-02-05T09:51:26.011Z,59.83
2023-02-05T09:53:35.612Z,59.97
2023-02-05T09:55:40.319Z,59.19
2023-02-05T09:57:44.848Z,58.82
2023-02-05T09:59:47.819Z,59.23
2023-02-05T10:02:13.164Z,59.78
2023-02-05T10:04:15.425Z,59.04
2023-02-05T10:06:21.513Z,58.95
2023-02-05T10:08:36.264Z,59.83
2023-02-05T10:10:49.382Z,61.10
2023-02-05T10:12:59.794Z,61.31
2023-02-05T10:15:09.431Z,61.14
2023-02-05T10:17:37.886Z,62.38
2023-02-05T10:19:42.742Z,61.91
2023-02-05T10:21:55.521Z,61.07
2023-02-05T10:24:26.933Z,62.06
2023-02-05T10:26:53.312Z,60.42
2023-02-05T10:29:11.572Z,61.04
2023-02-05T10:31:32.175Z,61.49
2023-02-05T10:33:44.888Z,60.15
2023-02-05T10:36:06.875Z,61.06
2023-02-05T10:38:21.209Z,61.39
2023-02-05T10:40:30.878Z,60.20
2023-02-05T10:42:39.839Z,60.04
2023-02-05T10:44:49.457Z,61.36
2023-02-05T10:46:57.069Z,61.12
2023-02-05T10:49:08.345Z,60.79
2023-02-05T10:51:15.943Z,60.99
2023-02-05T10:53:21.615Z,61.63
2023-02-05T10:55:29.642Z,60.88
2023-02-05T10:57:35.798Z,60.34
2023-02-05T10:59:58.756Z,62.33
2023-02-05T11:02:10.049Z,62.43
2023-02-05T11:04:29.933Z,62.08
2023-02-05T11:06:37.608Z,62.12
2023-02-05T11:08:44.092Z,62.09
2023-02-05T11:10:53.455Z,60.94
2023-02-05T11:12:58.871Z,62.08
2023-02-05T11:15:20.426Z,63.24
2023-02-05T11:17:35.282Z,61.27
2023-02-05T11:19:38.340Z,62.45
2023-02-05T11:21:56.832Z,62.00
2023-02-05T11:24:00.691Z,61.85
2023-02-05T11:26:09.116Z,62.23
2023-02-05T11:28:21.117Z,62.07
2023-02-05T11:30:56.042Z,60.40
2023-02-05T11:32:58.413Z,60.34
2023-02-05T11:35:21.017Z,59.76
2023-02-05T11:37:24.058Z,60.98
2023-02-05T11:39:40.093Z,60.66
2023-02-05T11:41:56.619Z,61.66
2023-02-05T11:44:03.336Z,61.22
2023-02-05T11:46:10.233Z,60.92
2023-02-05T11:48:40.496Z,60.19
2023-02-05T11:50:44.459Z,59.96
2023-02-05T11:52:46.434Z,61.03
2023-02-05T11:54:51.874Z,60.49
2023-02-05T11:57:20.284Z,61.80
2023-02-05T11:59:23.008Z,62.04
2023-02-05T12:01:25.986Z,59.62
2023-02-05T12:03:35.470Z,60.29
2023-02-05T12:06:16.750Z,59.19
2023-02-05T12:08:27.612Z,59.01
2023-02-05T12:11:02.097Z,60.87
2023-02-05T12:13:09.794Z,61.73
2023-02-05T12:15:17.666Z,61.41
2023-02-05T12:17:31.547Z,60.09
2023-02-05T12:19:48.402Z,59.99
2023-02-05T12:21:50.573Z,59.23
2023-02-05T12:24:10.467Z,60.35
2023-02-05T12:26:41.711Z,59.46
2023-02-05T12:28:43.697Z,60.40
2023-02-05T12:31:17.957Z,60.50
2023-02-05T12:33:54.828Z,59.50
2023-02-05T12:36:34.663Z,59.93
2023-02-05T12:38:56.617Z,59.81
2023-02-05T12:41:46.041Z,61.03
2023-02-05T12:43:50.674Z,60.36
2023-02-05T12:46:06.420Z,59.68
2023-02-05T12:48:48.423Z,59.91
2023-02-05T12:51:15.386Z,59.72
2023-02-05T12:53:17.746Z,61.43
2023-02-05T12:55:49.322Z,60.52
2023-02-05T12:57:59.780Z,58.40
2023-02-05T13:00:12.628Z,58.48
2023-02-05T13:02:59.372Z,59.36
2023-02-05T13:05:22.197Z,61.64
2023-02-05T13:07:42.652Z,60.58
2023-02-05T13:10:00.901Z,59.73
2023-02-05T13:12:12.167Z,59.04
2023-02-05T13:14:23.660Z,59.85
2023-02-05T13:16:41.883Z,60.86
2023-02-05T13:18:50.753Z,58.81
2023-02-05T13:21:24.172Z,59.06
2023-02-05T13:23:47.842Z,57.65
2023-02-05T13:26:09.114Z,58.27
2023-02-05T13:28:40.360Z,59.37
2023-02-05T13:30:46.908Z,58.68
2023-02-05T13:32:53.686Z,58.43
2023-02-05T13:34:59.796Z,58.37
2023-02-05T13:37:59.224Z,57.89
2023-02-05T13:40:36.840Z,57.80
2023-02-05T13:43:18.364Z,58.59
2023-02-05T13:45:28.848Z,57.77
2023-02-05T13:47:52.449Z,56.78
2023-02-05T13:50:28.551Z,57.74
2023-02-05T13:52:54.626Z,58.65
2023-02-05T13:55:22.708Z,57.45
2023-02-05T13:57:52.557Z,58.17
2023-02-05T13:59:56.234Z,58.96
2023-02-05T14:02:01.997Z,59.13
2023-02-05T14:04:17.387Z,59.87
2023-02-05T14:06:30.245Z,57.81
2023-02-05T14:09:56.855Z,60.04
2023-02-05T14:12:03.642Z,58.65
2023-02-05T14:14:18.962Z,57.97
2023-02-05T14:16:25.406Z,58.28
2023-02-05T14:18:40.188Z,57.36
2023-02-05T14:20:46.276Z,58.46
2023-02-05T14:22:50.406Z,58.96
2023-02-05T14:24:52.943Z,59.46
2023-02-05T14:27:00.889Z,59.16
2023-02-05T14:29:04.104Z,59.49
2023-02-05T14:31:07.933Z,59.77
2023-02-05T14:33:33.936Z,60.40
2023-02-05T14:35:40.941Z,59.80
2023-02-05T14:37:46.317Z,60.58
2023-02-05T14:39:48.669Z,61.08
2023-02-05T14:41:59.433Z,60.90
2023-02-05T14:44:16.512Z,60.91
2023-02-05T14:46:43.361Z,61.11
2023-02-05T14:48:49.069Z,61.82
2023-02-05T14:51:32.504Z,60.65
2023-02-05T14:53:37.460Z,60.42
2023-02-05T14:55:44.334Z,59.73
2023-02-05T14:57:48.628Z,60.27
2023-02-05T14:59:55.657Z,59.59
2023-02-05T15:02:00.400Z,60.33
2023-02-05T15:04:05.843Z,60.31
2023-02-05T15:06:19.033Z,59.83
2023-02-05T15:08:37.986Z,58.18
2023-02-05T15:11:09.332Z,58.03
2023-02-05T15:13:19.080Z,59.22
2023-02-05T15:15:33.466Z,59.10
2023-02-05T15:17:44.996Z,58.48
2023-02-05T15:19:53.344Z,59.14
2023-02-05T15:21:57.824Z,59.04
2023-02-05T15:24:22.504Z,59.28
2023-02-05T15:26:38.223Z,59.54
2023-02-05T15:28:49.596Z,60.24
2023-02-05T15:31:02.976Z,59.99
2023-02-05T15:33:21.918Z,59.79
2023-02-05T15:35:29.865Z,60.44
2023-02-05T15:37:40.891Z,60.14
2023-02-05T15:39:59.218Z,60.72
2023-02-05T15:42:06.004Z,60.27
2023-02-05T15:44:21.308Z,59.96
2023-02-05T15:46:24.346Z,60.62
2023-02-05T15:48:30.072Z,61.50
2023-02-05T15:50:34.564Z,60.66
2023-02-05T15:52:38.627Z,62.02
2023-02-05T15:54:41.505Z,62.53
2023-02-05T15:56:44.961Z,63.43
2023-02-05T15:59:04.442Z,62.96
2023-02-05T16:01:08.333Z,62.41
2023-02-05T16:03:26.744Z,63.00
2023-02-05T16:05:34.195Z,63.96
2023-02-05T16:07:44.386Z,63.86
2023-02-05T16:09:54.054Z,63.83
2023-02-05T16:11:57.349Z,62.96
2023-02-05T16:14:04.151Z,63.59
2023-02-05T16:16:12.714Z,64.07
2023-02-05T16:18:26.755Z,63.74
2023-02-05T16:20:34.381Z,64.10
2023-02-05T16:22:45.949Z,63.89
2023-02-05T16:24:53.256Z,63.85
2023-02-05T16:27:10.036Z,63.34
2023-02-05T16:29:25.831Z,64.13
2023-02-05T16:31:34.816Z,64.44
2023-02-05T16:33:41.377Z,63.55
2023-02-05T16:35:49.217Z,63.81
2023-02-05T16:37:52.476Z,64.29
2023-02-05T16:39:57.753Z,64.49
2023-02-05T16:42:28.324Z,64.66
2023-02-05T16:44:40.447Z,64.93
2023-02-05T16:46:44.785Z,65.98
2023-02-05T16:48:54.212Z,66.28
2023-02-05T16:50:59.452Z,66.34
2023-02-05T16:53:04.107Z,65.63
2023-02-05T16:55:28.601Z,66.23
2023-02-05T16:57:35.061Z,66.28
2023-02-05T17:00:19.541Z,66.76
2023-02-05T17:02:31.368Z,66.39
2023-02-05T17:04:39.627Z,67.09
2023-02-05T17:06:42.374Z,66.72
2023-02-05T17:08:53.248Z,67.35
2023-02-05T17:10:59.174Z,67.11
2023-02-05T17:13:05.962Z,67.19
2023-02-05T17:15:16.668Z,67.85
2023-02-05T17:17:20.106Z,67.83
2023-02-05T17:19:32.790Z,67.89
2023-02-05T17:21:36.842Z,68.57
2023-02-05T17:23:49.784Z,68.19
2023-02-05T17:25:56.829Z,67.36
2023-02-05T17:27:59.882Z,68.22
2023-02-05T17:30:03.289Z,68.22
2023-02-05T17:32:07.871Z,68.79
2023-02-05T17:34:11.392Z,68.31
2023-02-05T17:36:18.294Z,69.16
2023-02-05T17:38:24.658Z,69.46
2023-02-05T17:40:34.132Z,68.67
2023-02-05T17:42:37.607Z,68.15
2023-02-05T17:44:40.780Z,68.38
2023-02-05T17:46:49.015Z,68.70
2023-02-05T17:48:51.980Z,68.63
2023-02-05T17:51:00.654Z,69.19
2023-02-05T17:53:04.669Z,68.86
2023-02-05T17:55:10.446Z,68.73
2023-02-05T17:57:17.476Z,68.50
2023-02-05T17:59:25.063Z,69.74
2023-02-05T18:01:30.165Z,69.74
2023-02-05T18:03:32.794Z,70.01
2023-02-05T18:05:35.905Z,69.81
2023-02-05T18:07:49.417Z,70.43
2023-02-05T18:09:53.300Z,69.39
2023-02-05T18:11:57.492Z,69.95
2023-02-05T18:14:00.451Z,70.22
2023-02-05T18:16:05.101Z,69.85
2023-02-05T18:18:08.007Z,70.16
2023-02-05T18:20:12.268Z,70.56
2023-02-05T18:22:15.192Z,70.87
2023-02-05T18:24:23.115Z,70.74
2023-02-05T18:26:27.929Z,70.31
2023-02-05T18:28:31.724Z,70.47
2023-02-05T18:30:34.964Z,71.22
2023-02-05T18:32:42.171Z,70.80
2023-02-05T18:34:45.269Z,71.35
2023-02-05T18:36:51.060Z,71.07
2023-02-05T18:38:57.304Z,71.67
2023-02-05T18:41:10.487Z,70.94
2023-02-05T18:43:13.888Z,72.39
2023-02-05T18:45:16.960Z,72.49
2023-02-05T18:47:19.909Z,72.32
2023-02-05T18:49:25.043Z,72.39
2023-02-05T18:51:28.289Z,72.64
2023-02-05T18:53:31.322Z,72.26
2023-02-05T18:55:36.161Z,72.30
2023-02-05T18:57:38.861Z,73.47
2023-02-05T18:59:44.446Z,72.79
2023-02-05T19:01:47.363Z,73.41
2023-02-05T19:03:54.986Z,73.89
2023-02-05T19:05:57.842Z,75.18
2023-02-05T19:08:00.640Z,75.27
2023-02-05T19:10:03.338Z,74.83
2023-02-05T19:12:06.322Z,74.47
2023-02-05T19:14:15.986Z,74.94
2023-02-05T19:16:19.978Z,74.46
2023-02-05T19:18:22.840Z,74.36
2023-02-05T19:20:25.932Z,74.92
2023-02-05T19:22:28.923Z,74.60
2023-02-05T19:24:31.798Z,74.25
2023-02-05T19:26:38.114Z,74.98
2023-02-05T19:28:43.858Z,75.04
2023-02-05T19:30:46.978Z,74.80
2023-02-05T19:32:50.988Z,75.34
2023-02-05T19:34:57.013Z,75.27
2023-02-05T19:36:59.829Z,75.47
2023-02-05T19:39:12.935Z,75.64
2023-02-05T19:41:25.860Z,76.59
2023-02-05T19:43:28.750Z,76.10
2023-02-05T19:45:31.761Z,75.80
2023-02-05T19:47:34.753Z,75.53
2023-02-05T19:49:39.895Z,75.84
2023-02-05T19:51:52.568Z,76.21
2023-02-05T19:54:03.722Z,76.66
2023-02-05T19:56:11.272Z,76.36
2023-02-05T19:58:14.324Z,76.15
2023-02-05T20:00:17.654Z,76.21
2023-02-05T20:02:25.183Z,76.53
2023-02-05T20:04:30.774Z,76.34
2023-02-05T20:06:36.405Z,75.96
2023-02-05T20:08:39.566Z,76.29
2023-02-05T20:10:41.867Z,76.76
2023-02-05T20:12:44.841Z,76.36
2023-02-05T20:14:48.462Z,76.33
2023-02-05T20:16:53.097Z,76.61
2023-02-05T20:19:00.330Z,76.18
2023-02-05T20:21:16.544Z,76.34
2023-02-05T20:23:21.435Z,77.18
2023-02-05T20:25:25.079Z,77.83
2023-02-05T20:27:31.124Z,77.64
2023-02-05T20:30:06.284Z,77.38
2023-02-05T20:32:10.957Z,76.86
2023-02-05T20:34:22.885Z,76.74
2023-02-05T20:36:34.494Z,76.55
2023-02-05T20:38:37.280Z,77.13
2023-02-05T20:40:40.244Z,77.41
2023-02-05T20:42:43.842Z,77.20
2023-02-05T20:44:46.782Z,77.48
2023-02-05T20:46:50.951Z,78.64
2023-02-05T20:48:54.021Z,78.39
2023-02-05T20:51:04.667Z,77.56
2023-02-05T20:53:08.783Z,78.69
2023-02-05T20:55:11.524Z,78.90
2023-02-05T20:57:15.833Z,78.92
2023-02-05T20:59:18.484Z,79.50
2023-02-05T21:01:26.299Z,79.71
2023-02-05T21:03:30.944Z,79.86
2023-02-05T21:05:34.639Z,79.21
2023-02-05T21:07:37.147Z,79.19
2023-02-05T21:09:40.840Z,79.03
2023-02-05T21:11:44.146Z,77.87
2023-02-05T21:13:48.770Z,78.70
2023-02-05T21:15:55.743Z,78.98
2023-02-05T21:17:58.017Z,79.49
2023-02-05T21:20:00.117Z,79.10
2023-02-05T21:22:03.753Z,78.53
2023-02-05T21:24:12.694Z,78.47
2023-02-05T21:26:25.358Z,79.77
2023-02-05T21:28:30.316Z,79.44
2023-02-05T21:30:32.727Z,79.27
2023-02-05T21:32:35.161Z,79.46
2023-02-05T21:34:37.181Z,79.47
2023-02-05T21:36:40.765Z,79.85
2023-02-05T21:38:43.010Z,79.74
2023-02-05T21:40:45.195Z,79.76
2023-02-05T21:42:47.572Z,79.26
2023-02-05T21:44:53.885Z,79.55
2023-02-05T21:47:09.028Z,80.20
2023-02-05T21:49:11.928Z,79.89
2023-02-05T21:51:18.271Z,80.23
2023-02-05T21:53:22.203Z,79.88
2023-02-05T21:55:24.407Z,79.79
2023-02-05T21:57:28.467Z,79.95
2023-02-05T21:59:30.452Z,79.54
2023-02-05T22:01:35.126Z,79.58
2023-02-05T22:03:38.131Z,79.44
2023-02-05T22:05:40.198Z,79.52
2023-02-05T22:07:42.214Z,79.80
2023-02-05T22:09:44.286Z,80.28
2023-02-05T22:11:52.233Z,79.74
2023-02-05T22:13:56.651Z,80.03
2023-02-05T22:16:03.554Z,80.15
2023-02-05T22:18:05.482Z,79.84
2023-02-05T22:20:13.401Z,79.89
2023-02-05T22:22:15.402Z,80.27
2023-02-05T22:24:25.463Z,79.89
2023-02-05T22:26:31.316Z,79.93
2023-02-05T22:28:37.178Z,80.39
2023-02-05T22:30:41.098Z,80.39
2023-02-05T22:32:44.020Z,80.23
2023-02-05T22:34:46.019Z,80.59
2023-02-05T22:37:02.515Z,80.22
2023-02-05T22:39:39.844Z,80.41
2023-02-05T22:41:43.070Z,80.35
2023-02-05T22:43:54.465Z,80.10
2023-02-05T22:48:11.970Z,80.06
2023-02-05T22:50:16.144Z,80.06
2023-02-05T22:52:18.092Z,79.83
2023-02-05T22:54:20.975Z,80.33
2023-02-05T22:56:23.560Z,80.56
2023-02-05T22:58:25.441Z,81.06
2023-02-05T23:00:29.812Z,81.12
2023-02-05T23:02:32.680Z,79.94
2023-02-05T23:04:34.738Z,80.64
2023-02-05T23:06:42.090Z,81.12
2023-02-05T23:08:48.750Z,80.45
2023-02-05T23:10:51.678Z,80.45
2023-02-05T23:12:53.685Z,80.39
2023-02-05T23:14:55.614Z,80.34
2023-02-05T23:16:59.317Z,80.35
2023-02-05T23:19:12.665Z,80.05
2023-02-05T23:21:17.822Z,80.72
2023-02-05T23:23:25.559Z,80.36
2023-02-05T23:25:36.897Z,80.37
2023-02-05T23:27:41.696Z,80.24
2023-02-05T23:29:43.671Z,80.56
2023-02-05T23:31:49.661Z,79.63
2023-02-05T23:33:53.892Z,79.74
2023-02-05T23:36:01.379Z,80.30
2023-02-05T23:38:04.300Z,79.99
2023-02-05T23:40:33.118Z,80.33
2023-02-05T23:42:36.102Z,80.43
2023-02-05T23:44:39.116Z,80.42
2023-02-05T23:46:44.024Z,80.14
2023-02-05T23:48:47.967Z,80.86
2023-02-05T23:50:59.306Z,80.24
2023-02-05T23:53:03.902Z,80.21
2023-02-05T23:55:15.919Z,79.48
2023-02-05T23:57:19.893Z,80.35
2023-02-05T23:59:32.158Z,79.60
